Time;durP1;ratioP1;P1;durP2;ratioP2;P2;SDS_P1;SDS_P2;PMS_P1;PMS_P2;Temp;Humidity;BMP_temperature;BMP_pressure;BME280_temperature;BME280_humidity;BME280_pressure;Samples;Min_cycle;Max_cycle;Signal;HPM_P1;HPM_P2
2022/09/08 00:02:07;;;;;;;0.10;0.10;;;15.80;99.90;;;;;;5058981;28;20186;-93
2022/09/08 00:04:33;;;;;;;0.10;0.10;;;15.90;99.90;;;;;;5061849;28;20181;-92
2022/09/08 00:07:01;;;;;;;0.10;0.10;;;15.80;99.90;;;;;;5067109;28;20217;-92
2022/09/08 00:09:30;;;;;;;0.10;0.10;;;15.80;99.90;;;;;;5063376;28;20455;-92
2022/09/08 00:11:56;;;;;;;0.10;0.10;;;15.80;99.90;;;;;;5064999;28;20540;-93
2022/09/08 00:14:22;;;;;;;0.10;0.10;;;15.70;99.90;;;;;;5064593;28;20440;-94
2022/09/08 00:16:47;;;;;;;0.10;0.10;;;15.60;99.90;;;;;;5062224;28;20835;-93
2022/09/08 00:19:13;;;;;;;0.10;0.10;;;15.50;99.90;;;;;;5061756;28;20205;-91
2022/09/08 00:21:39;;;;;;;0.10;0.10;;;15.50;99.90;;;;;;5066365;28;20239;-92
2022/09/08 00:24:04;;;;;;;0.10;0.10;;;15.40;99.90;;;;;;5065918;28;20269;-92
2022/09/08 00:26:30;;;;;;;0.10;0.10;;;15.40;99.90;;;;;;5062323;28;20304;-93
2022/09/08 00:28:55;;;;;;;0.10;0.10;;;15.30;99.90;;;;;;5068263;28;20218;-92
2022/09/08 00:31:21;;;;;;;0.10;0.10;;;15.20;99.90;;;;;;5064317;28;20194;-92
2022/09/08 00:33:47;;;;;;;0.10;0.10;;;15.30;99.90;;;;;;5066838;28;20170;-93
2022/09/08 00:36:15;;;;;;;0.10;0.10;;;15.30;99.90;;;;;;5064909;28;20221;-92
2022/09/08 00:38:41;;;;;;;0.10;0.10;;;15.30;99.90;;;;;;5068040;28;20216;-92
2022/09/08 00:41:11;;;;;;;0.10;0.10;;;15.30;99.90;;;;;;5054479;28;20464;-91
2022/09/08 00:43:39;;;;;;;0.10;0.10;;;15.20;99.90;;;;;;5056390;28;20447;-92
2022/09/08 00:46:14;;;;;;;0.10;0.10;;;15.10;99.90;;;;;;5060362;28;20498;-93
2022/09/08 00:49:16;;;;;;;0.10;0.10;;;15.00;99.90;;;;;;5065848;28;20931;-93
2022/09/08 00:51:45;;;;;;;0.10;0.10;;;15.00;99.90;;;;;;5062743;28;20497;-92
2022/09/08 00:54:12;;;;;;;0.10;0.10;;;15.00;99.90;;;;;;5062784;28;20479;-93
2022/09/08 00:56:41;;;;;;;0.10;0.10;;;15.00;99.90;;;;;;5066398;28;20508;-92
2022/09/08 00:59:08;;;;;;;0.10;0.10;;;15.00;99.90;;;;;;5065880;28;20448;-93
2022/09/08 01:01:35;;;;;;;0.10;0.10;;;15.00;99.90;;;;;;5067072;28;20462;-93
2022/09/08 01:04:03;;;;;;;0.10;0.10;;;15.00;99.90;;;;;;5061776;28;20483;-93
2022/09/08 01:15:06;;;;;;;0.10;0.10;;;14.70;99.90;;;;;;5065450;28;20451;-93
2022/09/08 01:17:32;;;;;;;0.10;0.10;;;14.70;99.90;;;;;;5061192;28;21022;-90
2022/09/08 01:19:59;;;;;;;0.10;0.10;;;14.70;99.90;;;;;;5060933;28;20462;-90
2022/09/08 01:22:41;;;;;;;0.10;0.10;;;14.80;99.90;;;;;;5068763;28;20517;-90
2022/09/08 01:25:07;;;;;;;0.10;0.10;;;14.80;99.90;;;;;;5068416;28;20444;-93
2022/09/08 01:27:35;;;;;;;0.10;0.10;;;14.80;99.90;;;;;;5064447;28;20589;-94
2022/09/08 01:30:07;;;;;;;0.10;0.10;;;14.80;99.90;;;;;;5054676;28;20689;-93
2022/09/08 01:32:35;;;;;;;0.10;0.10;;;14.70;99.90;;;;;;5063088;28;20447;-90
2022/09/08 01:35:01;;;;;;;0.10;0.10;;;14.60;99.90;;;;;;5072428;28;20451;-92
2022/09/08 01:37:27;;;;;;;0.10;0.10;;;14.60;99.90;;;;;;5067271;28;20578;-90
2022/09/08 01:39:53;;;;;;;0.10;0.10;;;14.60;99.90;;;;;;5068178;28;20476;-90
2022/09/08 01:42:19;;;;;;;0.10;0.10;;;14.60;99.90;;;;;;5069348;28;20436;-88
2022/09/08 01:44:45;;;;;;;0.10;0.10;;;14.60;99.90;;;;;;5068597;28;20934;-89
2022/09/08 01:47:11;;;;;;;0.10;0.10;;;14.60;99.90;;;;;;5067614;28;20247;-90
2022/09/08 01:49:36;;;;;;;0.10;0.10;;;14.70;99.90;;;;;;5064319;28;20269;-90
2022/09/08 01:52:02;;;;;;;0.10;0.10;;;14.70;99.90;;;;;;5066543;28;20543;-89
2022/09/08 01:54:28;;;;;;;0.10;0.10;;;14.70;99.90;;;;;;5070290;28;20194;-88
2022/09/08 01:56:54;;;;;;;0.10;0.10;;;14.70;99.90;;;;;;5070992;28;20700;-91
2022/09/08 01:59:20;;;;;;;0.10;0.10;;;14.70;99.90;;;;;;5073522;28;20182;-93
2022/09/08 02:01:46;;;;;;;0.10;0.10;;;14.70;99.90;;;;;;5064721;28;20501;-92
2022/09/08 02:04:11;;;;;;;0.10;0.10;;;14.70;99.90;;;;;;5068017;28;20571;-92
2022/09/08 02:06:37;;;;;;;0.13;0.13;;;14.70;99.90;;;;;;5067521;28;20197;-91
2022/09/08 02:09:03;;;;;;;0.10;0.10;;;14.80;99.90;;;;;;5066982;28;20197;-92
2022/09/08 02:11:29;;;;;;;0.10;0.10;;;14.70;99.90;;;;;;5072108;28;20197;-93
2022/09/08 02:13:54;;;;;;;0.10;0.10;;;14.80;99.90;;;;;;5069926;28;20433;-92
2022/09/08 02:16:20;;;;;;;0.10;0.10;;;14.80;99.90;;;;;;5068495;28;20213;-91
2022/09/08 02:18:46;;;;;;;0.10;0.10;;;14.80;99.90;;;;;;5064947;28;20266;-92
2022/09/08 02:21:15;;;;;;;0.10;0.10;;;14.90;99.90;;;;;;5071129;28;20186;-91
2022/09/08 02:23:44;;;;;;;0.10;0.10;;;14.90;99.90;;;;;;5064160;28;20244;-93
2022/09/08 02:26:22;;;;;;;0.10;0.10;;;14.90;99.90;;;;;;5069874;28;20509;-94
2022/09/08 02:28:48;;;;;;;0.10;0.10;;;15.00;99.90;;;;;;5067340;28;20545;-92
2022/09/08 02:31:14;;;;;;;0.10;0.10;;;15.00;99.90;;;;;;5064782;28;20833;-92
2022/09/08 02:33:40;;;;;;;0.10;0.10;;;15.00;99.90;;;;;;5066248;28;20435;-93
2022/09/08 02:36:06;;;;;;;0.10;0.10;;;15.00;99.90;;;;;;5063392;28;20206;-92
2022/09/08 02:38:32;;;;;;;0.10;0.10;;;15.00;99.90;;;;;;5079112;28;20282;-93
2022/09/08 02:40:59;;;;;;;0.10;0.10;;;15.00;99.90;;;;;;5069883;28;20544;-93
2022/09/08 02:43:26;;;;;;;0.10;0.10;;;14.90;99.90;;;;;;5065607;28;20182;-92
2022/09/08 02:45:52;;;;;;;0.10;0.10;;;14.90;99.90;;;;;;5066242;28;20539;-94
2022/09/08 02:48:17;;;;;;;0.10;0.10;;;14.80;99.90;;;;;;5064232;28;20527;-92
2022/09/08 02:50:43;;;;;;;0.10;0.10;;;14.80;99.90;;;;;;5072067;28;20190;-91
2022/09/08 02:53:09;;;;;;;0.10;0.10;;;14.80;99.90;;;;;;5067580;28;20242;-91
2022/09/08 02:55:39;;;;;;;0.10;0.10;;;14.80;99.90;;;;;;5066162;28;20291;-92
2022/09/08 02:58:07;;;;;;;0.10;0.10;;;14.80;99.90;;;;;;5063725;28;20967;-92
2022/09/08 03:00:33;;;;;;;0.10;0.10;;;14.80;99.90;;;;;;5069990;28;20505;-93
2022/09/08 03:02:59;;;;;;;0.10;0.10;;;14.90;99.90;;;;;;5069538;28;20454;-91
2022/09/08 03:05:25;;;;;;;0.10;0.10;;;14.90;99.90;;;;;;5060857;28;20441;-91
2022/09/08 03:07:51;;;;;;;0.10;0.10;;;14.90;99.90;;;;;;5068302;28;20554;-88
2022/09/08 03:10:20;;;;;;;0.10;0.10;;;15.00;99.90;;;;;;5066835;28;20285;-90
2022/09/08 03:12:45;;;;;;;0.10;0.10;;;15.00;99.90;;;;;;5068628;28;20483;-93
2022/09/08 03:15:12;;;;;;;0.10;0.10;;;15.00;99.90;;;;;;5069644;28;20479;-92
2022/09/08 03:17:37;;;;;;;0.10;0.10;;;15.00;99.90;;;;;;5068805;28;20244;-92
2022/09/08 03:20:03;;;;;;;0.10;0.10;;;14.90;99.90;;;;;;5068018;28;20448;-89
2022/09/08 03:22:29;;;;;;;0.10;0.10;;;14.80;99.90;;;;;;5062084;28;20183;-88
2022/09/08 03:24:54;;;;;;;0.10;0.10;;;14.90;99.90;;;;;;5052728;28;20195;-90
2022/09/08 03:27:20;;;;;;;0.10;0.10;;;14.90;99.90;;;;;;5059266;28;20197;-89
2022/09/08 03:29:45;;;;;;;0.10;0.10;;;14.70;99.90;;;;;;5069268;28;20317;-92
2022/09/08 03:32:11;;;;;;;0.10;0.10;;;14.70;99.90;;;;;;5068946;28;20234;-92
2022/09/08 03:34:37;;;;;;;0.10;0.10;;;14.60;99.90;;;;;;5065239;28;20764;-90
2022/09/08 03:37:02;;;;;;;0.10;0.10;;;14.60;99.90;;;;;;5060335;28;20209;-90
2022/09/08 03:39:28;;;;;;;0.10;0.10;;;14.50;99.90;;;;;;5069965;28;20649;-89
2022/09/08 03:41:54;;;;;;;0.10;0.10;;;14.50;99.90;;;;;;5069548;28;20185;-89
2022/09/08 03:44:19;;;;;;;0.10;0.10;;;14.40;99.90;;;;;;5069252;28;20307;-90
2022/09/08 03:46:45;;;;;;;0.10;0.10;;;14.30;99.90;;;;;;5070284;28;20462;-89
2022/09/08 03:49:11;;;;;;;0.10;0.10;;;14.40;99.90;;;;;;5066966;28;20193;-90
2022/09/08 03:51:37;;;;;;;0.10;0.10;;;14.30;99.90;;;;;;5068172;28;20220;-89
2022/09/08 03:57:00;;;;;;;0.10;0.10;;;14.20;99.90;;;;;;5033040;28;20234;-90
2022/09/08 03:59:26;;;;;;;0.10;0.10;;;14.20;99.90;;;;;;5064311;28;20436;-91
2022/09/08 04:01:53;;;;;;;0.10;0.10;;;14.20;99.90;;;;;;5059889;28;20654;-90
2022/09/08 04:04:22;;;;;;;0.10;0.10;;;14.20;99.90;;;;;;5062223;28;20190;-90
2022/09/08 04:06:48;;;;;;;0.10;0.10;;;14.20;99.90;;;;;;5068305;28;20432;-90
2022/09/08 04:09:14;;;;;;;0.10;0.10;;;14.20;99.90;;;;;;5068569;28;20447;-90
2022/09/08 04:11:39;;;;;;;0.10;0.10;;;14.20;99.90;;;;;;5058941;28;20802;-89
2022/09/08 04:14:05;;;;;;;0.10;0.10;;;14.30;99.90;;;;;;5065669;28;20551;-90
2022/09/08 04:16:30;;;;;;;0.10;0.10;;;14.40;99.90;;;;;;5061168;28;20214;-90
2022/09/08 04:18:56;;;;;;;0.10;0.10;;;14.40;99.90;;;;;;5061434;28;20186;-90
2022/09/08 04:21:21;;;;;;;0.10;0.10;;;14.30;99.90;;;;;;5068764;28;20186;-90
2022/09/08 04:23:47;;;;;;;0.10;0.10;;;14.40;99.90;;;;;;5070069;28;20209;-90
2022/09/08 04:26:13;;;;;;;0.10;0.10;;;14.30;99.90;;;;;;5068316;28;20186;-89
2022/09/08 04:28:39;;;;;;;0.10;0.10;;;14.30;99.90;;;;;;5070029;28;20701;-90
2022/09/08 04:31:11;;;;;;;0.10;0.10;;;14.30;99.90;;;;;;5060347;28;20468;-88
2022/09/08 04:33:37;;;;;;;0.10;0.10;;;14.30;99.90;;;;;;5060150;28;21214;-88
2022/09/08 04:36:15;;;;;;;0.10;0.10;;;14.20;99.90;;;;;;5062238;28;21052;-90
2022/09/08 04:38:40;;;;;;;0.10;0.10;;;14.20;99.90;;;;;;5064314;28;20497;-89
2022/09/08 04:41:09;;;;;;;0.10;0.10;;;14.30;99.90;;;;;;5066625;28;20831;-90
2022/09/08 04:43:35;;;;;;;0.10;0.10;;;14.30;99.90;;;;;;5059324;28;20717;-89
2022/09/08 04:46:07;;;;;;;0.10;0.10;;;14.30;99.90;;;;;;5059083;28;20440;-90
2022/09/08 04:48:33;;;;;;;0.10;0.10;;;14.30;99.90;;;;;;5054024;28;20450;-89
2022/09/08 04:51:00;;;;;;;0.10;0.10;;;14.40;99.90;;;;;;5081277;28;20444;-89
2022/09/08 04:53:27;;;;;;;0.10;0.10;;;14.40;99.90;;;;;;5071586;28;20462;-89
2022/09/08 04:55:53;;;;;;;0.10;0.10;;;14.40;99.90;;;;;;5064297;28;20478;-90
2022/09/08 04:58:19;;;;;;;0.10;0.10;;;14.50;99.90;;;;;;5063387;28;20526;-88
2022/09/08 05:00:45;;;;;;;0.10;0.10;;;14.40;99.90;;;;;;5059475;28;20440;-87
2022/09/08 05:03:11;;;;;;;0.10;0.10;;;14.50;99.90;;;;;;5058288;28;20505;-87
2022/09/08 05:05:36;;;;;;;0.10;0.10;;;14.60;99.90;;;;;;5065265;28;20240;-88
2022/09/08 05:08:02;;;;;;;0.10;0.10;;;14.70;99.90;;;;;;5067217;28;20190;-89
2022/09/08 05:10:28;;;;;;;0.10;0.10;;;14.80;99.90;;;;;;5072580;28;20452;-90
2022/09/08 05:12:54;;;;;;;0.10;0.10;;;14.80;99.90;;;;;;5068816;28;20443;-90
2022/09/08 05:15:20;;;;;;;0.10;0.10;;;14.90;99.90;;;;;;5060495;28;20289;-92
2022/09/08 05:17:46;;;;;;;0.10;0.10;;;15.00;99.90;;;;;;5073696;28;21054;-92
2022/09/08 05:20:11;;;;;;;0.10;0.10;;;15.10;99.90;;;;;;5068947;28;20186;-87
2022/09/08 05:22:38;;;;;;;0.10;0.10;;;15.00;99.90;;;;;;5066637;28;20179;-86
2022/09/08 05:25:04;;;;;;;0.10;0.10;;;15.10;99.90;;;;;;5071191;28;20182;-88
2022/09/08 05:27:29;;;;;;;0.10;0.10;;;15.10;99.90;;;;;;5068621;28;21208;-89
2022/09/08 05:29:55;;;;;;;0.10;0.10;;;15.20;99.90;;;;;;5066133;28;20520;-86
2022/09/08 05:32:20;;;;;;;0.10;0.10;;;15.20;99.90;;;;;;5068983;28;20251;-88
2022/09/08 05:34:46;;;;;;;0.10;0.10;;;15.20;99.90;;;;;;5071914;28;20196;-87
2022/09/08 05:37:12;;;;;;;0.10;0.10;;;15.30;99.90;;;;;;5068544;28;20763;-89
2022/09/08 05:39:38;;;;;;;0.10;0.10;;;15.40;99.90;;;;;;5073079;28;20216;-89
2022/09/08 05:42:04;;;;;;;0.10;0.10;;;15.40;99.90;;;;;;5071476;28;20178;-90
2022/09/08 05:44:30;;;;;;;0.10;0.10;;;15.50;99.90;;;;;;5071694;28;20440;-87
2022/09/08 05:46:55;;;;;;;0.10;0.10;;;15.50;99.90;;;;;;5068424;28;20823;-91
2022/09/08 05:49:21;;;;;;;0.10;0.10;;;15.50;99.90;;;;;;5071603;28;20186;-90
2022/09/08 05:51:47;;;;;;;0.10;0.10;;;15.50;99.90;;;;;;5073047;28;20194;-90
2022/09/08 05:54:13;;;;;;;0.10;0.10;;;15.50;99.90;;;;;;5069119;28;20311;-91
2022/09/08 05:56:39;;;;;;;0.10;0.10;;;15.50;99.90;;;;;;5069728;28;20479;-86
2022/09/08 05:59:04;;;;;;;0.10;0.10;;;15.60;99.90;;;;;;5069414;28;20974;-87
2022/09/08 06:01:32;;;;;;;0.10;0.10;;;15.60;99.90;;;;;;5066151;28;20290;-92
2022/09/08 06:03:59;;;;;;;0.10;0.10;;;15.60;99.90;;;;;;5072621;28;20185;-88
2022/09/08 06:06:25;;;;;;;0.10;0.10;;;15.60;99.90;;;;;;5065244;28;20487;-90
2022/09/08 06:08:53;;;;;;;0.10;0.10;;;15.70;99.90;;;;;;5070427;28;21029;-89
2022/09/08 06:11:18;;;;;;;0.10;0.10;;;15.70;99.90;;;;;;5071128;28;20519;-89
2022/09/08 06:13:44;;;;;;;0.10;0.10;;;15.90;99.90;;;;;;5070799;28;20485;-91
2022/09/08 06:16:12;;;;;;;0.10;0.10;;;16.10;99.90;;;;;;5069368;28;20214;-92
2022/09/08 06:18:40;;;;;;;0.10;0.10;;;16.20;99.90;;;;;;5069244;28;20686;-89
2022/09/08 06:21:17;;;;;;;0.10;0.10;;;16.30;99.90;;;;;;5062176;28;20450;-87
2022/09/08 06:23:43;;;;;;;0.10;0.10;;;16.50;99.90;;;;;;5062166;28;20454;-89
2022/09/08 06:26:29;;;;;;;0.10;0.10;;;16.80;99.90;;;;;;5068096;28;20471;-89
2022/09/08 06:29:26;;;;;;;0.10;0.10;;;16.80;99.90;;;;;;5057460;28;20222;-86
2022/09/08 06:32:02;;;;;;;0.10;0.10;;;16.80;99.90;;;;;;5064543;28;20453;-87
2022/09/08 06:34:35;;;;;;;0.10;0.10;;;16.70;99.90;;;;;;5064282;28;20919;-85
2022/09/08 06:37:07;;;;;;;0.10;0.10;;;16.60;99.90;;;;;;5068620;28;20498;-86
2022/09/08 06:39:50;;;;;;;0.10;0.10;;;16.50;99.90;;;;;;5066777;28;20440;-86
2022/09/08 06:42:20;;;;;;;0.10;0.10;;;16.50;99.90;;;;;;5071644;28;20459;-87
2022/09/08 06:44:51;;;;;;;0.10;0.10;;;16.40;99.90;;;;;;5066687;28;21223;-89
2022/09/08 06:47:25;;;;;;;0.10;0.10;;;16.50;99.90;;;;;;5065990;28;20452;-88
2022/09/08 06:49:51;;;;;;;0.10;0.10;;;16.50;99.90;;;;;;5066746;28;20452;-88
2022/09/08 06:52:26;;;;;;;0.10;0.10;;;16.50;99.90;;;;;;5070120;28;20863;-86
2022/09/08 06:54:56;;;;;;;0.10;0.10;;;16.60;99.90;;;;;;5064189;28;20490;-89
2022/09/08 06:57:27;;;;;;;0.10;0.10;;;16.60;99.90;;;;;;5066484;28;20479;-87
2022/09/08 07:00:12;;;;;;;0.10;0.10;;;16.60;99.90;;;;;;5066420;28;20440;-89
2022/09/08 07:02:43;;;;;;;0.10;0.10;;;16.60;99.90;;;;;;5068246;28;20452;-89
2022/09/08 07:05:38;;;;;;;0.10;0.10;;;16.60;99.90;;;;;;5067406;28;20446;-89
2022/09/08 07:08:37;;;;;;;0.10;0.10;;;16.70;99.90;;;;;;5066228;28;20508;-89
2022/09/08 07:11:17;;;;;;;0.10;0.10;;;16.70;99.90;;;;;;5065068;28;20444;-90
2022/09/08 07:14:01;;;;;;;0.10;0.10;;;16.80;99.90;;;;;;5062217;28;20443;-89
2022/09/08 07:16:44;;;;;;;0.10;0.10;;;16.80;99.90;;;;;;5066907;28;20468;-91
2022/09/08 07:19:31;;;;;;;0.10;0.10;;;16.80;99.90;;;;;;5065677;28;20452;-88
2022/09/08 07:22:31;;;;;;;0.10;0.10;;;16.80;99.90;;;;;;5055233;28;20444;-88
2022/09/08 07:25:13;;;;;;;0.10;0.10;;;17.00;99.90;;;;;;5066401;28;20478;-89
2022/09/08 07:27:40;;;;;;;0.10;0.10;;;17.00;99.90;;;;;;5064855;28;20447;-90
2022/09/08 07:30:05;;;;;;;0.10;0.10;;;16.90;99.90;;;;;;5067367;28;20915;-90
2022/09/08 07:32:34;;;;;;;0.10;0.10;;;17.00;99.90;;;;;;5066254;28;20539;-89
2022/09/08 07:35:45;;;;;;;0.10;0.10;;;16.90;99.90;;;;;;5068515;28;20463;-91
2022/09/08 07:38:18;;;;;;;0.10;0.10;;;16.80;99.90;;;;;;5074472;28;20448;-88
2022/09/08 07:40:48;;;;;;;0.10;0.10;;;16.90;99.90;;;;;;5065171;28;20443;-88
2022/09/08 07:43:15;;;;;;;0.10;0.10;;;16.80;99.90;;;;;;5063126;28;20437;-88
2022/09/08 07:45:48;;;;;;;0.10;0.10;;;16.80;99.90;;;;;;5068476;28;21030;-91
2022/09/08 07:48:13;;;;;;;0.10;0.10;;;16.80;99.90;;;;;;5061772;28;20452;-91
2022/09/08 07:50:54;;;;;;;0.10;0.10;;;16.80;99.90;;;;;;5068201;28;20447;-90
2022/09/08 07:53:41;;;;;;;0.10;0.10;;;16.80;99.90;;;;;;5061245;28;20187;-93
2022/09/08 07:56:15;;;;;;;0.10;0.10;;;16.80;99.90;;;;;;5063041;28;20463;-87
2022/09/08 07:58:51;;;;;;;0.10;0.10;;;16.70;99.90;;;;;;5066830;28;20554;-91
2022/09/08 08:01:39;;;;;;;0.10;0.10;;;16.80;99.90;;;;;;5064455;28;21099;-91
2022/09/08 08:04:32;;;;;;;0.10;0.10;;;16.80;99.90;;;;;;5063087;28;20813;-95
2022/09/08 08:07:05;;;;;;;0.10;0.10;;;16.80;99.90;;;;;;5059650;28;20583;-92
2022/09/08 08:10:09;;;;;;;0.10;0.10;;;16.70;99.90;;;;;;5063734;28;20527;-90
2022/09/08 08:12:56;;;;;;;0.10;0.10;;;16.80;99.90;;;;;;5061707;28;20435;-88
2022/09/08 08:15:22;;;;;;;0.10;0.10;;;16.70;99.90;;;;;;5055311;28;20452;-87
2022/09/08 08:18:27;;;;;;;0.10;0.10;;;16.80;99.90;;;;;;5066514;28;20566;-86
2022/09/08 08:21:10;;;;;;;0.10;0.10;;;16.80;99.90;;;;;;5061953;28;20460;-93
2022/09/08 08:23:55;;;;;;;0.10;0.10;;;16.80;99.90;;;;;;5075947;28;20447;-86
2022/09/08 08:26:52;;;;;;;0.10;0.10;;;16.80;99.90;;;;;;5058440;28;20440;-93
2022/09/08 08:29:56;;;;;;;0.10;0.10;;;16.80;99.90;;;;;;5052772;28;20472;-88
2022/09/08 08:32:42;;;;;;;0.10;0.10;;;16.80;99.90;;;;;;5058368;28;20501;-91
2022/09/08 08:35:32;;;;;;;0.10;0.10;;;16.80;99.90;;;;;;5058782;28;20443;-90
2022/09/08 08:37:59;;;;;;;0.10;0.10;;;16.80;99.90;;;;;;5059086;28;20445;-91
2022/09/08 08:40:53;;;;;;;0.10;0.10;;;16.80;99.90;;;;;;5064864;28;20522;-96
2022/09/08 08:43:56;;;;;;;0.10;0.10;;;16.80;99.90;;;;;;5069730;28;20428;-93
2022/09/08 08:46:48;;;;;;;0.10;0.10;;;16.80;99.90;;;;;;5059479;28;20535;-89
2022/09/08 08:49:36;;;;;;;0.10;0.10;;;16.70;99.90;;;;;;5065426;28;20444;-90
2022/09/08 08:52:04;;;;;;;0.10;0.10;;;16.80;99.90;;;;;;5065391;28;20886;-88
2022/09/08 08:54:43;;;;;;;0.10;0.10;;;16.80;99.90;;;;;;5066520;28;20444;-90
2022/09/08 08:57:50;;;;;;;0.10;0.00;;;16.80;99.90;;;;;;5066425;28;20494;-88
2022/09/08 09:00:22;;;;;;;0.10;0.10;;;16.80;99.90;;;;;;5055979;28;20453;-93
2022/09/08 09:03:22;;;;;;;0.10;0.10;;;16.90;99.90;;;;;;5058632;28;20432;-88
2022/09/08 09:06:14;;;;;;;0.10;0.10;;;17.00;99.90;;;;;;5075838;28;20544;-87
2022/09/08 09:08:57;;;;;;;0.10;0.10;;;17.00;99.90;;;;;;5065538;28;20444;-88
2022/09/08 09:11:49;;;;;;;0.10;0.10;;;17.00;99.90;;;;;;5063978;28;20449;-86
2022/09/08 09:14:27;;;;;;;0.10;0.10;;;17.10;99.90;;;;;;5057542;28;20548;-89
2022/09/08 09:17:07;;;;;;;0.10;0.10;;;17.00;99.90;;;;;;5068325;28;20541;-86
2022/09/08 09:19:35;;;;;;;0.10;0.10;;;17.00;99.90;;;;;;5065374;28;20877;-87
2022/09/08 09:22:51;;;;;;;0.10;0.10;;;16.90;99.90;;;;;;5069786;28;20423;-87
2022/09/08 09:25:25;;;;;;;0.10;0.10;;;16.80;99.90;;;;;;5071681;28;20448;-88
2022/09/08 09:28:20;;;;;;;0.10;0.10;;;16.70;99.90;;;;;;5067726;28;21138;-90
2022/09/08 09:31:07;;;;;;;0.10;0.10;;;16.60;99.90;;;;;;5066181;28;20491;-86
2022/09/08 09:34:12;;;;;;;0.10;0.10;;;16.50;99.90;;;;;;5067953;28;20943;-90
2022/09/08 09:36:52;;;;;;;0.10;0.10;;;16.30;99.90;;;;;;5063284;28;21023;-84
2022/09/08 09:39:46;;;;;;;0.10;0.10;;;16.20;99.90;;;;;;5058012;28;20454;-84
2022/09/08 09:42:33;;;;;;;0.10;0.10;;;16.10;99.90;;;;;;5055049;28;20453;-85
2022/09/08 09:45:19;;;;;;;0.10;0.10;;;15.90;99.90;;;;;;5057924;28;20447;-83
2022/09/08 09:48:10;;;;;;;0.10;0.10;;;15.70;99.90;;;;;;5059565;28;20946;-84
2022/09/08 09:50:50;;;;;;;0.10;0.10;;;15.70;99.90;;;;;;5063174;28;20939;-83
2022/09/08 09:53:43;;;;;;;0.10;0.10;;;15.60;99.90;;;;;;5068864;28;20459;-80
2022/09/08 09:56:27;;;;;;;0.10;0.10;;;15.30;99.90;;;;;;5068706;28;21055;-77
2022/09/08 09:59:26;;;;;;;0.10;0.10;;;15.10;99.90;;;;;;5070636;28;20475;-77
2022/09/08 10:02:12;;;;;;;0.10;0.10;;;14.90;99.90;;;;;;5069884;28;20669;-77
2022/09/08 10:04:41;;;;;;;0.10;0.10;;;14.90;99.90;;;;;;5067853;28;20969;-76
2022/09/08 10:07:29;;;;;;;0.10;0.10;;;14.80;99.90;;;;;;5070248;28;20837;-75
2022/09/08 10:10:04;;;;;;;0.10;0.10;;;14.60;99.90;;;;;;5068497;28;20448;-76
2022/09/08 10:12:54;;;;;;;0.10;0.10;;;14.50;99.90;;;;;;5067755;28;20433;-76
2022/09/08 10:15:53;;;;;;;0.10;0.10;;;14.40;99.90;;;;;;5072975;28;20440;-76
2022/09/08 10:18:57;;;;;;;0.10;0.10;;;14.30;99.90;;;;;;5071692;28;20956;-76
2022/09/08 10:22:06;;;;;;;0.10;0.10;;;14.30;99.90;;;;;;5067224;28;20518;-76
2022/09/08 10:24:51;;;;;;;0.10;0.10;;;14.20;99.90;;;;;;5082545;28;20789;-76
2022/09/08 10:27:53;;;;;;;0.10;0.10;;;14.20;99.90;;;;;;5071557;28;20412;-77
2022/09/08 10:31:07;;;;;;;0.10;0.10;;;14.20;99.90;;;;;;5052546;28;20899;-77
2022/09/08 10:33:45;;;;;;;0.10;0.10;;;14.30;99.90;;;;;;5063650;28;20493;-76
2022/09/08 10:36:12;;;;;;;0.20;0.20;;;14.30;99.90;;;;;;5069048;28;20460;-77
2022/09/08 10:38:59;;;;;;;0.10;0.10;;;14.30;99.90;;;;;;5071444;28;20532;-79
2022/09/08 10:42:01;;;;;;;0.10;0.10;;;14.40;99.90;;;;;;5063124;28;20443;-78
2022/09/08 10:44:50;;;;;;;0.10;0.10;;;14.40;99.90;;;;;;5071185;28;20459;-78
2022/09/08 10:48:06;;;;;;;0.10;0.10;;;14.40;99.90;;;;;;5071278;28;20443;-79
2022/09/08 10:50:33;;;;;;;0.10;0.10;;;14.30;99.90;;;;;;5027730;28;20966;-79
2022/09/08 10:53:44;;;;;;;0.10;0.10;;;14.30;99.90;;;;;;5028276;28;20538;-80
2022/09/08 10:56:40;;;;;;;0.10;0.10;;;14.30;99.90;;;;;;5062700;28;20472;-80
2022/09/08 10:59:39;;;;;;;0.10;0.10;;;14.30;99.90;;;;;;5045973;28;20459;-80
2022/09/08 11:02:27;;;;;;;0.10;0.10;;;14.30;99.90;;;;;;5061175;28;20443;-80
2022/09/08 11:05:20;;;;;;;0.10;0.10;;;14.40;99.90;;;;;;5069248;28;20857;-80
2022/09/08 11:08:10;;;;;;;0.10;0.10;;;14.30;99.90;;;;;;5071391;28;20505;-80
2022/09/08 11:11:21;;;;;;;0.10;0.10;;;14.40;99.90;;;;;;5064923;28;20447;-80
2022/09/08 11:14:18;;;;;;;0.10;0.10;;;14.40;99.90;;;;;;5069728;28;20448;-80
2022/09/08 11:17:07;;;;;;;0.10;0.10;;;14.40;99.90;;;;;;5060932;28;20548;-80
2022/09/08 11:19:39;;;;;;;0.10;0.10;;;14.40;99.90;;;;;;5067792;28;20456;-82
2022/09/08 11:22:15;;;;;;;0.10;0.10;;;14.50;99.90;;;;;;5070582;28;20431;-80
2022/09/08 11:25:01;;;;;;;0.10;0.10;;;14.40;99.90;;;;;;5067093;28;20444;-80
2022/09/08 11:28:09;;;;;;;0.10;0.10;;;14.40;99.90;;;;;;5059965;28;20444;-80
2022/09/08 11:30:48;;;;;;;0.10;0.10;;;14.40;99.90;;;;;;5070073;28;20934;-81
2022/09/08 11:33:50;;;;;;;0.10;0.10;;;14.40;99.90;;;;;;5064469;28;20522;-80
2022/09/08 11:36:21;;;;;;;0.10;0.10;;;14.30;99.90;;;;;;5069880;28;20467;-81
2022/09/08 11:39:38;;;;;;;0.10;0.10;;;14.30;99.90;;;;;;5066499;28;20456;-80
2022/09/08 11:42:32;;;;;;;0.10;0.10;;;14.40;99.90;;;;;;5052379;28;20538;-80
2022/09/08 11:45:35;;;;;;;0.10;0.10;;;14.40;99.90;;;;;;5062728;28;20488;-81
2022/09/08 11:48:38;;;;;;;0.10;0.10;;;14.40;99.90;;;;;;5062970;28;20474;-80
2022/09/08 11:51:27;;;;;;;0.10;0.10;;;14.40;99.90;;;;;;5061095;28;20416;-80
2022/09/08 11:53:59;;;;;;;0.10;0.10;;;14.50;99.90;;;;;;5053934;28;20467;-81
2022/09/08 11:56:42;;;;;;;0.10;0.10;;;14.50;99.90;;;;;;5055810;28;20976;-81
2022/09/08 11:59:31;;;;;;;0.10;0.10;;;14.50;99.90;;;;;;5051007;28;20761;-81
2022/09/08 12:02:19;;;;;;;0.10;0.10;;;14.50;99.90;;;;;;5053954;28;20455;-81
2022/09/08 12:05:16;;;;;;;0.10;0.10;;;14.40;99.90;;;;;;5078580;28;20448;-81
2022/09/08 12:08:03;;;;;;;0.10;0.10;;;14.50;99.90;;;;;;5065764;28;20959;-81
2022/09/08 12:11:10;;;;;;;0.10;0.10;;;14.40;99.90;;;;;;5069537;28;20447;-81
2022/09/08 12:14:11;;;;;;;0.10;0.10;;;14.30;99.90;;;;;;5067046;28;20429;-81
2022/09/08 12:16:55;;;;;;;0.10;0.10;;;14.50;99.90;;;;;;5067695;28;20483;-81
2022/09/08 12:19:36;;;;;;;0.10;0.10;;;14.40;99.90;;;;;;5068892;28;20447;-82
2022/09/08 12:22:19;;;;;;;0.10;0.10;;;14.50;99.90;;;;;;5068236;28;20530;-82
2022/09/08 12:25:03;;;;;;;0.10;0.10;;;14.50;99.90;;;;;;5070712;28;20416;-82
2022/09/08 12:27:59;;;;;;;0.10;0.10;;;14.60;99.90;;;;;;5069343;28;20420;-82
2022/09/08 12:30:42;;;;;;;0.10;0.10;;;14.70;99.90;;;;;;5069501;28;20812;-81
2022/09/08 12:33:40;;;;;;;0.10;0.10;;;14.70;99.90;;;;;;5067536;28;20896;-80
2022/09/08 12:36:22;;;;;;;0.10;0.10;;;14.80;99.90;;;;;;5065988;28;20463;-81
2022/09/08 12:39:23;;;;;;;0.10;0.10;;;14.90;99.90;;;;;;5065525;28;20444;-80
2022/09/08 12:42:04;;;;;;;0.10;0.10;;;14.90;99.90;;;;;;5036846;28;20859;-82
2022/09/08 12:44:45;;;;;;;0.10;0.10;;;14.90;99.90;;;;;;5060429;28;20455;-80
2022/09/08 12:47:55;;;;;;;0.10;0.10;;;14.90;99.90;;;;;;5059501;28;20479;-80
2022/09/08 12:51:14;;;;;;;0.10;0.10;;;15.00;99.90;;;;;;5049047;28;20439;-80
2022/09/08 12:53:54;;;;;;;0.10;0.10;;;15.00;99.90;;;;;;5026322;28;20472;-80
2022/09/08 12:56:25;;;;;;;0.10;0.10;;;15.00;99.90;;;;;;5040644;28;20472;-80
2022/09/08 12:59:14;;;;;;;0.10;0.10;;;15.00;99.90;;;;;;5060982;28;20440;-80
2022/09/08 13:02:00;;;;;;;0.10;0.10;;;15.00;99.90;;;;;;5067533;28;20840;-82
2022/09/08 13:05:06;;;;;;;0.10;0.10;;;15.10;99.90;;;;;;5069023;28;20440;-79
2022/09/08 13:08:12;;;;;;;0.10;0.10;;;15.00;99.90;;;;;;5049599;28;20468;-80
2022/09/08 13:10:44;;;;;;;0.10;0.10;;;15.00;99.90;;;;;;5057993;28;20851;-81
2022/09/08 13:13:32;;;;;;;0.10;0.10;;;15.00;99.90;;;;;;5058821;28;20433;-86
2022/09/08 13:16:06;;;;;;;0.10;0.10;;;14.90;99.90;;;;;;5057119;28;20805;-84
2022/09/08 13:19:10;;;;;;;0.10;0.10;;;14.90;99.90;;;;;;5058513;28;20955;-86
2022/09/08 13:21:39;;;;;;;0.10;0.10;;;14.90;99.90;;;;;;5057759;28;20825;-86
2022/09/08 13:24:14;;;;;;;0.10;0.10;;;14.90;99.90;;;;;;5057756;28;20437;-87
2022/09/08 13:26:59;;;;;;;0.10;0.10;;;14.90;99.90;;;;;;5058496;28;20452;-86
2022/09/08 13:29:31;;;;;;;0.10;0.10;;;14.80;99.90;;;;;;5061605;28;20480;-86
2022/09/08 13:32:28;;;;;;;0.10;0.10;;;14.80;99.90;;;;;;5062201;28;20452;-87
2022/09/08 13:35:33;;;;;;;0.10;0.10;;;14.80;99.90;;;;;;5042274;28;21089;-84
2022/09/08 13:38:29;;;;;;;0.10;0.10;;;14.80;99.90;;;;;;5058363;28;22290;-88
2022/09/08 13:41:25;;;;;;;0.10;0.10;;;14.80;99.90;;;;;;5059111;28;20445;-89
2022/09/08 13:44:11;;;;;;;0.10;0.10;;;14.70;99.90;;;;;;5061175;28;20482;-90
2022/09/08 13:47:09;;;;;;;0.10;0.10;;;14.70;99.90;;;;;;5067299;28;20482;-88
2022/09/08 13:50:09;;;;;;;0.10;0.10;;;14.70;99.90;;;;;;5086608;28;20452;-88
2022/09/08 13:52:52;;;;;;;0.10;0.10;;;14.60;99.90;;;;;;5081604;28;20436;-89